createdAt,value
2022-10-31T00:03:12.467Z,94418.56
2022-10-31T00:08:14.945Z,94378.75
2022-10-31T00:13:17.136Z,94415.50
2022-10-31T00:18:19.096Z,94396.78
2022-10-31T00:23:20.920Z,94383.81
2022-10-31T00:28:25.414Z,94386.16
2022-10-31T00:33:28.522Z,94402.88
2022-10-31T00:38:31.412Z,94406.25
2022-10-31T00:43:33.313Z,94361.84
2022-10-31T00:48:35.275Z,94377.19
2022-10-31T00:53:37.484Z,94375.91
2022-10-31T00:58:39.536Z,94379.91
2022-10-31T01:03:42.499Z,94382.13
2022-10-31T01:08:48.183Z,94364.59
2022-10-31T01:13:54.627Z,94370.41
2022-10-31T01:18:56.566Z,94371.19
2022-10-31T01:23:58.469Z,94362.69
2022-10-31T01:29:09.565Z,94337.19
2022-10-31T01:34:15.716Z,94334.09
2022-10-31T01:39:19.650Z,94342.19
2022-10-31T01:44:22.280Z,94356.44
2022-10-31T01:49:39.211Z,94320.47
2022-10-31T01:54:45.153Z,94350.94
2022-10-31T01:59:49.860Z,94346.75
2022-10-31T02:04:51.922Z,94340.91
2022-10-31T02:09:55.164Z,94352.22
2022-10-31T02:14:58.635Z,94352.78
2022-10-31T02:20:20.197Z,94349.66
2022-10-31T02:25:22.221Z,94352.47
2022-10-31T02:30:26.038Z,94341.97
2022-10-31T02:35:38.624Z,94314.47
2022-10-31T02:40:43.586Z,94300.66
2022-10-31T02:46:50.473Z,94350.91
2022-10-31T02:51:52.396Z,94328.47
2022-10-31T02:57:00.248Z,94338.19
2022-10-31T03:02:17.728Z,94326.91
2022-10-31T03:07:22.748Z,94324.09
2022-10-31T03:12:44.560Z,94290.28
2022-10-31T03:18:02.128Z,94286.16
2022-10-31T03:23:08.097Z,94294.97
2022-10-31T03:28:11.563Z,94281.47
2022-10-31T03:33:19.220Z,94297.19
2022-10-31T03:38:23.093Z,94286.81
2022-10-31T03:43:29.796Z,94281.09
2022-10-31T03:48:31.960Z,94268.00
2022-10-31T03:53:38.244Z,94286.00
2022-10-31T03:58:46.180Z,94293.88
2022-10-31T04:03:49.130Z,94258.94
2022-10-31T04:08:58.635Z,94274.84
2022-10-31T04:14:01.675Z,94281.69
2022-10-31T04:19:03.812Z,94287.47
2022-10-31T04:24:06.145Z,94252.31
2022-10-31T04:29:08.748Z,94288.94
2022-10-31T04:34:10.603Z,94246.25
2022-10-31T04:39:12.614Z,94260.50
2022-10-31T04:44:21.339Z,94259.84
2022-10-31T04:49:26.751Z,94305.75
2022-10-31T04:54:28.885Z,94300.28
2022-10-31T04:59:49.231Z,94291.91
2022-10-31T05:04:51.448Z,94227.75
2022-10-31T05:09:54.262Z,94279.81
2022-10-31T05:14:57.324Z,94288.94
2022-10-31T05:20:19.145Z,94284.25
2022-10-31T05:25:42.604Z,94280.00
2022-10-31T05:30:44.528Z,94291.22
2022-10-31T05:35:50.141Z,94299.22
2022-10-31T05:41:07.475Z,94292.44
2022-10-31T05:46:09.922Z,94279.88
2022-10-31T05:51:30.348Z,94281.44
2022-10-31T05:56:32.499Z,94292.81
2022-10-31T06:01:35.401Z,94281.81
2022-10-31T06:06:41.385Z,94282.00
2022-10-31T06:11:43.828Z,94288.41
2022-10-31T06:17:00.811Z,94287.16
2022-10-31T06:29:53.595Z,94288.84
2022-10-31T06:35:04.085Z,94262.34
2022-10-31T06:40:09.178Z,94296.09
2022-10-31T06:45:31.012Z,94296.22
2022-10-31T06:51:00.250Z,94300.31
2022-10-31T06:56:04.827Z,94317.34
2022-10-31T07:01:44.558Z,94333.66
2022-10-31T07:06:51.674Z,94331.22
2022-10-31T07:11:54.608Z,94304.81
2022-10-31T07:16:56.720Z,94356.31
2022-10-31T07:22:05.474Z,94301.94
2022-10-31T07:27:08.860Z,94339.28
2022-10-31T07:32:10.940Z,94337.66
2022-10-31T07:37:18.715Z,94331.66
2022-10-31T07:42:20.639Z,94282.31
2022-10-31T07:47:22.715Z,94323.44
2022-10-31T07:52:43.408Z,94330.00
2022-10-31T07:58:17.389Z,94346.97
2022-10-31T08:03:20.395Z,94363.47
2022-10-31T08:08:40.658Z,94367.34
2022-10-31T08:13:44.440Z,94357.69
2022-10-31T08:18:49.570Z,94364.31
2022-10-31T08:23:51.828Z,94388.94
2022-10-31T08:28:56.507Z,94403.78
2022-10-31T08:34:01.600Z,94394.78
2022-10-31T08:39:42.281Z,94385.44
2022-10-31T08:44:44.415Z,94389.38
2022-10-31T08:49:46.351Z,94402.25
2022-10-31T08:54:49.357Z,94410.50
2022-10-31T09:00:20.640Z,94361.63
2022-10-31T09:05:36.314Z,94375.03
2022-10-31T09:10:38.621Z,94389.47
2022-10-31T09:15:42.412Z,94387.13
2022-10-31T09:20:54.986Z,94386.03
2022-10-31T09:25:57.318Z,94387.81
2022-10-31T09:31:18.306Z,94389.16
2022-10-31T09:36:39.984Z,94400.78
2022-10-31T09:41:51.822Z,94404.56
2022-10-31T09:47:43.368Z,94385.59
2022-10-31T09:53:08.602Z,94395.06
2022-10-31T09:58:22.214Z,94394.38
2022-10-31T10:03:42.112Z,94374.75
2022-10-31T10:09:04.140Z,94412.25
2022-10-31T10:14:53.631Z,94423.53
2022-10-31T10:20:24.385Z,94432.03
2022-10-31T10:25:42.974Z,94418.09
2022-10-31T10:30:50.031Z,94398.19
2022-10-31T10:35:54.304Z,94438.72
2022-10-31T10:40:56.563Z,94438.94
2022-10-31T10:46:52.816Z,94425.72
2022-10-31T10:52:13.324Z,94390.44
2022-10-31T10:57:35.032Z,94398.25
2022-10-31T11:02:37.021Z,94443.38
2022-10-31T11:07:41.961Z,94435.31
2022-10-31T11:12:46.570Z,94426.09
2022-10-31T11:17:51.566Z,94435.56
2022-10-31T11:23:03.015Z,94439.81
2022-10-31T11:35:30.300Z,94426.78
2022-10-31T11:40:32.344Z,94447.09
2022-10-31T11:45:35.242Z,94431.53
2022-10-31T11:50:41.218Z,94407.69
2022-10-31T11:55:44.858Z,94433.84
2022-10-31T12:01:56.679Z,94424.00
2022-10-31T12:06:58.964Z,94400.22
2022-10-31T12:12:03.697Z,94408.56
2022-10-31T12:17:05.513Z,94437.72
2022-10-31T12:22:19.104Z,94441.38
2022-10-31T12:27:25.168Z,94447.44
2022-10-31T12:33:01.750Z,94429.06
2022-10-31T12:38:29.331Z,94415.31
2022-10-31T12:43:52.350Z,94394.28
2022-10-31T12:49:18.376Z,94399.59
2022-10-31T12:54:35.138Z,94388.25
2022-10-31T12:59:42.602Z,94413.31
2022-10-31T13:05:02.499Z,94413.09
2022-10-31T13:10:14.278Z,94408.66
2022-10-31T13:15:23.481Z,94415.50
2022-10-31T13:20:34.369Z,94418.00
2022-10-31T13:25:41.671Z,94408.72
2022-10-31T13:30:44.380Z,94407.25
2022-10-31T13:36:14.352Z,94403.09
2022-10-31T13:41:44.123Z,94405.78
2022-10-31T13:46:46.342Z,94368.75
2022-10-31T13:51:49.849Z,94383.09
2022-10-31T13:56:52.803Z,94401.88
2022-10-31T14:01:57.714Z,94393.75
2022-10-31T14:07:08.852Z,94406.91
2022-10-31T14:12:23.641Z,94382.44
2022-10-31T14:17:28.205Z,94393.28
2022-10-31T14:22:36.317Z,94354.50
2022-10-31T14:27:48.054Z,94387.53
2022-10-31T14:33:18.226Z,94383.88
2022-10-31T14:38:32.531Z,94398.44
2022-10-31T14:43:58.075Z,94398.34
2022-10-31T14:49:35.052Z,94398.25
2022-10-31T14:54:43.912Z,94393.47
2022-10-31T14:59:50.550Z,94363.00
2022-10-31T15:04:54.057Z,94393.19
2022-10-31T15:09:57.569Z,94410.31
2022-10-31T15:15:12.613Z,94410.69
2022-10-31T15:20:19.326Z,94382.09
2022-10-31T15:25:23.731Z,94368.38
2022-10-31T15:30:28.988Z,94398.97
2022-10-31T15:35:31.908Z,94422.34
2022-10-31T15:40:34.413Z,94401.03
2022-10-31T15:45:36.556Z,94392.94
2022-10-31T15:50:41.465Z,94420.63
2022-10-31T15:55:50.581Z,94423.88
2022-10-31T16:01:04.102Z,94432.38
2022-10-31T16:06:07.480Z,94425.03
2022-10-31T16:11:13.722Z,94441.88
2022-10-31T16:21:39.692Z,94431.81
2022-10-31T16:26:41.564Z,94413.16
2022-10-31T16:31:43.640Z,94444.66
2022-10-31T16:36:45.626Z,94463.75
2022-10-31T16:41:51.834Z,94452.59
2022-10-31T16:47:10.242Z,94439.44
2022-10-31T16:52:12.374Z,94464.09
2022-10-31T16:57:21.014Z,94458.41
2022-10-31T17:02:23.125Z,94472.63
2022-10-31T17:14:20.392Z,94475.88
2022-10-31T17:19:22.395Z,94478.56
2022-10-31T17:24:24.449Z,94511.59
2022-10-31T17:29:26.590Z,94497.94
2022-10-31T17:34:28.742Z,94513.84
2022-10-31T17:39:30.710Z,94489.44
2022-10-31T17:44:32.894Z,94518.78
2022-10-31T17:49:34.833Z,94525.09
2022-10-31T17:54:41.611Z,94524.75
2022-10-31T17:59:43.760Z,94542.78
2022-10-31T18:04:45.731Z,94558.84
2022-10-31T18:09:48.006Z,94528.78
2022-10-31T18:14:51.843Z,94560.16
2022-10-31T18:19:53.751Z,94572.34
2022-10-31T18:25:00.857Z,94577.91
2022-10-31T18:30:04.208Z,94587.88
2022-10-31T18:35:06.911Z,94595.94
2022-10-31T18:40:09.383Z,94584.41
2022-10-31T18:45:23.929Z,94585.97
2022-10-31T18:50:33.471Z,94560.69
2022-10-31T18:55:43.984Z,94586.50
2022-10-31T19:00:49.476Z,94595.81
2022-10-31T19:05:55.310Z,94594.91
2022-10-31T19:11:04.431Z,94598.25
2022-10-31T19:16:17.108Z,94588.63
2022-10-31T19:21:19.078Z,94592.78
2022-10-31T19:26:53.398Z,94597.34
2022-10-31T19:31:55.297Z,94595.66
2022-10-31T19:36:57.346Z,94608.38
2022-10-31T19:41:59.395Z,94609.41
2022-10-31T19:47:01.290Z,94617.03
2022-10-31T19:52:03.391Z,94619.34
2022-10-31T19:57:05.272Z,94606.28
2022-10-31T20:02:07.647Z,94618.56
2022-10-31T20:07:41.382Z,94627.06
2022-10-31T20:12:43.434Z,94620.94
2022-10-31T20:17:45.963Z,94582.66
2022-10-31T20:22:50.289Z,94615.44
2022-10-31T20:27:53.032Z,94626.59
2022-10-31T20:33:38.645Z,94638.00
2022-10-31T20:38:41.619Z,94641.03
2022-10-31T20:43:44.395Z,94643.56
2022-10-31T20:48:46.558Z,94642.00
2022-10-31T20:53:49.663Z,94653.50
2022-10-31T20:58:51.980Z,94658.53
2022-10-31T21:03:53.998Z,94656.97
2022-10-31T21:08:58.071Z,94650.34
2022-10-31T21:14:00.110Z,94644.75
2022-10-31T21:19:05.200Z,94647.19
2022-10-31T21:29:21.686Z,94641.78
2022-10-31T21:34:23.652Z,94665.50
2022-10-31T21:39:27.843Z,94670.84
2022-10-31T21:44:29.688Z,94652.44
2022-10-31T21:49:31.661Z,94685.03
2022-10-31T21:54:33.795Z,94681.34
2022-10-31T21:59:38.087Z,94673.66
2022-10-31T22:04:41.283Z,94675.56
2022-10-31T22:09:47.397Z,94678.75
2022-10-31T22:14:49.287Z,94691.94
2022-10-31T22:19:51.250Z,94651.38
2022-10-31T22:24:53.163Z,94681.84
2022-10-31T22:29:56.698Z,94682.50
2022-10-31T22:34:59.396Z,94686.41
2022-10-31T22:40:01.447Z,94685.63
2022-10-31T22:45:03.876Z,94682.63
2022-10-31T22:50:06.190Z,94682.63
2022-10-31T22:55:09.364Z,94684.97
2022-10-31T23:00:11.756Z,94674.91
2022-10-31T23:05:14.156Z,94681.56
2022-10-31T23:10:16.028Z,94691.16
2022-10-31T23:15:18.801Z,94664.31
2022-10-31T23:20:20.799Z,94683.25
2022-10-31T23:25:41.536Z,94681.38
2022-10-31T23:30:46.615Z,94682.94
2022-10-31T23:35:48.622Z,94676.00
2022-10-31T23:40:50.433Z,94679.16
2022-10-31T23:45:52.428Z,94685.94
2022-10-31T23:50:54.409Z,94690.19
2022-10-31T23:55:56.321Z,94700.06
